Crew | Aerofun Virtual



 METAR AND TAF INFORMATION
METAR FOR GCLA
ADDS - METARS form results

(1042 UTC 20 April 2019)
Data provider http://aviationweather.gov/metar/data/
 
METAR text: GCLA 201030Z 03014KT 360V060 9999 FEW025 OVC040 19/12 Q1019
Conditions at: GCLA (LA PALMA AIRPORT, ES) observed 1030 UTC 20 April 2019
Temperature: 19.0°C (66°F)
Dewpoint: 12.0°C (54°F) [RH = 64%]
Pressure (altimeter): 30.09 inches Hg (1019.0 mb)
Winds: from the NNE (30 degrees) at 16 MPH (14 knots; 7.2 m/s)
Visibility: 6 or more miles (10+ km)
Ceiling: 4000 feet AGL
Clouds: few clouds at 2500 feet AGL
overcast cloud deck at 4000 feet AGL
Weather: no significant weather observed at this time

METAR text: GCLA 201000Z 03014KT 350V070 9999 FEW025 OVC035 19/12 Q1019
Conditions at: GCLA (LA PALMA AIRPORT, ES) observed 1000 UTC 20 April 2019
Temperature: 19.0°C (66°F)
Dewpoint: 12.0°C (54°F) [RH = 64%]
Pressure (altimeter): 30.09 inches Hg (1019.0 mb)
Winds: from the NNE (30 degrees) at 16 MPH (14 knots; 7.2 m/s)
Visibility: 6 or more miles (10+ km)
Ceiling: 3500 feet AGL
Clouds: few clouds at 2500 feet AGL
overcast cloud deck at 3500 feet AGL
Weather: no significant weather observed at this time

Forecast for: GCLA (LA PALMA AIRPORT, ES)
Text: TAF GCLA 200800Z 2009/2109 02012KT 9999 SCT040 TX22/2014Z TN17/2106Z
Forecast period: 0900 UTC 20 April 2019 to 0000 UTC 21 April 2019
Forecast type: FROM: standard forecast or significant change
Winds: from the NNE (20 degrees) at 14 MPH (12 knots; 6.2 m/s)
Visibility: 6 or more miles 10+ km)
Ceiling: at least 12,000 feet AGL
Clouds: scattered clouds at 4000 feet AGL
Weather: no significant weather forecast for this period
Text: BECMG 2100/2102 32007KT
Forecast period: 0000 to 0900 UTC 21 April 2019
Forecast type: BECOMING: Conditions expected to become as follows by 0200 UTC 21 April 2019
Winds: from the NW (320 degrees) at 8 MPH (7 knots; 3.6 m/s)
Visibility: 6 or more miles 10+ km)
Ceiling: at least 12,000 feet AGL
Clouds: scattered clouds at 4000 feet AGL
Weather: no significant weather forecast for this period

 AIRPORT MAP

 RUNWAY INFORMATION
Runway 01 Runway length 7218 ft Runway width 148 ft
Runway elevation 103 ft Runway displaced threshold 0 ft Runway heading 359
Runway 19 Runway length 7218 ft Runway width 148 ft
Runway elevation 65 ft Runway displaced threshold 0 ft Runway heading 179

 AIRPORT FREQUENCIES
Type APP Name CANARIAS A Frequency 126.1 MHZ
Type ATIS Name INFO Frequency 118.6 MHZ
Type GND Name GND Frequency 121.8 MHZ
Type TWR Name TWR Frequency 118.9 MHZ

 AIRPORT NEAR NAVIGATION AIDS
Type DME Name La Palma Frequency 112400 KHZ
Type NDB Name La Palma Frequency 389 KHZ